sensor_id;sensor_type;location;lat;lon;timestamp;pressure;altitude;pressure_sealevel;temperature;humidity
7754;BME280;3921;42.266;23.122;2023-03-03T00:00:50;95348.38;;;6.00;70.42
7754;BME280;3921;42.266;23.122;2023-03-03T00:03:21;95470.59;;;6.87;69.52
7754;BME280;3921;42.266;23.122;2023-03-03T00:05:49;95122.09;;;4.80;69.57
7754;BME280;3921;42.266;23.122;2023-03-03T00:08:17;95621.28;;;7.82;69.85
7754;BME280;3921;42.266;23.122;2023-03-03T00:10:46;95652.25;;;7.97;69.78
7754;BME280;3921;42.266;23.122;2023-03-03T00:13:16;95643.94;;;8.03;69.60
7754;BME280;3921;42.266;23.122;2023-03-03T00:15:43;95307.63;;;6.01;69.83
7754;BME280;3921;42.266;23.122;2023-03-03T00:18:21;95628.09;;;8.04;69.77
7754;BME280;3921;42.266;23.122;2023-03-03T00:20:53;95518.31;;;7.17;69.30
7754;BME280;3921;42.266;23.122;2023-03-03T00:23:27;95289.06;;;5.70;69.98
7754;BME280;3921;42.266;23.122;2023-03-03T00:25:58;95320.19;;;6.10;69.92
7754;BME280;3921;42.266;23.122;2023-03-03T00:28:28;95632.25;;;7.99;70.09
7754;BME280;3921;42.266;23.122;2023-03-03T00:30:57;95658.06;;;7.93;70.21
7754;BME280;3921;42.266;23.122;2023-03-03T00:33:29;95590.19;;;7.51;71.32
7754;BME280;3921;42.266;23.122;2023-03-03T00:36:28;95634.75;;;8.02;70.59
7754;BME280;3921;42.266;23.122;2023-03-03T00:39:14;95368.69;;;6.37;71.36
7754;BME280;3921;42.266;23.122;2023-03-03T00:41:45;95487.44;;;7.11;70.22
7754;BME280;3921;42.266;23.122;2023-03-03T00:44:39;95627.16;;;7.90;70.71
7754;BME280;3921;42.266;23.122;2023-03-03T00:47:31;95623.81;;;7.89;70.89
7754;BME280;3921;42.266;23.122;2023-03-03T00:50:24;95618.78;;;7.85;71.00
7754;BME280;3921;42.266;23.122;2023-03-03T00:53:00;95619.63;;;7.82;71.10
7754;BME280;3921;42.266;23.122;2023-03-03T00:55:27;95577.78;;;7.61;71.42
7754;BME280;3921;42.266;23.122;2023-03-03T00:57:56;95581.78;;;7.38;71.72
7754;BME280;3921;42.266;23.122;2023-03-03T01:00:24;95427.16;;;6.67;71.85
7754;BME280;3921;42.266;23.122;2023-03-03T01:02:51;95444.78;;;6.83;71.31
7754;BME280;3921;42.266;23.122;2023-03-03T01:05:19;95277.47;;;5.75;71.87
7754;BME280;3921;42.266;23.122;2023-03-03T01:07:46;95224.72;;;5.32;72.12
7754;BME280;3921;42.266;23.122;2023-03-03T01:10:13;95468.81;;;6.74;71.39
7754;BME280;3921;42.266;23.122;2023-03-03T01:12:40;95513.16;;;6.99;72.62
7754;BME280;3921;42.266;23.122;2023-03-03T01:15:10;95421.44;;;6.80;72.12
7754;BME280;3921;42.266;23.122;2023-03-03T01:17:38;95616.16;;;7.66;73.14
7754;BME280;3921;42.266;23.122;2023-03-03T01:20:07;95592.03;;;7.71;73.34
7754;BME280;3921;42.266;23.122;2023-03-03T01:22:34;95167.97;;;5.04;73.37
7754;BME280;3921;42.266;23.122;2023-03-03T01:25:02;95437.25;;;6.77;72.65
7754;BME280;3921;42.266;23.122;2023-03-03T01:27:29;95614.56;;;7.75;73.32
7754;BME280;3921;42.266;23.122;2023-03-03T01:29:57;95236.53;;;5.52;73.34
7754;BME280;3921;42.266;23.122;2023-03-03T01:32:26;95589.53;;;7.68;74.11
7754;BME280;3921;42.266;23.122;2023-03-03T01:34:53;95540.94;;;7.39;74.49
7754;BME280;3921;42.266;23.122;2023-03-03T01:37:20;95467.31;;;6.92;75.03
7754;BME280;3921;42.266;23.122;2023-03-03T01:39:49;95568.63;;;7.62;74.94
7754;BME280;3921;42.266;23.122;2023-03-03T01:42:16;95266.59;;;5.69;75.39
7754;BME280;3921;42.266;23.122;2023-03-03T01:44:44;95544.28;;;7.38;76.76
7754;BME280;3921;42.266;23.122;2023-03-03T01:47:12;95586.94;;;7.61;76.38
7754;BME280;3921;42.266;23.122;2023-03-03T01:49:48;95251.53;;;5.56;76.12
7754;BME280;3921;42.266;23.122;2023-03-03T01:52:22;95215.72;;;5.45;75.94
7754;BME280;3921;42.266;23.122;2023-03-03T01:54:54;95534.28;;;7.35;75.39
7754;BME280;3921;42.266;23.122;2023-03-03T01:57:26;95208.25;;;5.48;75.36
7754;BME280;3921;42.266;23.122;2023-03-03T01:59:54;95469.91;;;7.05;75.39
7754;BME280;3921;42.266;23.122;2023-03-03T02:02:24;95426.41;;;6.78;76.17
7754;BME280;3921;42.266;23.122;2023-03-03T02:04:55;95582.81;;;7.64;77.18
7754;BME280;3921;42.266;23.122;2023-03-03T02:07:24;95379.41;;;6.28;77.85
7754;BME280;3921;42.266;23.122;2023-03-03T02:09:57;95410.44;;;6.59;76.52
7754;BME280;3921;42.266;23.122;2023-03-03T02:12:30;95082.00;;;4.55;76.67
7754;BME280;3921;42.266;23.122;2023-03-03T02:15:01;95426.06;;;6.38;77.57
7754;BME280;3921;42.266;23.122;2023-03-03T02:17:36;95488.25;;;7.10;77.69
7754;BME280;3921;42.266;23.122;2023-03-03T02:20:08;95568.59;;;7.60;77.98
7754;BME280;3921;42.266;23.122;2023-03-03T02:22:43;95118.63;;;4.65;79.11
7754;BME280;3921;42.266;23.122;2023-03-03T02:25:17;95224.75;;;5.36;79.47
7754;BME280;3921;42.266;23.122;2023-03-03T02:27:50;95142.16;;;4.94;79.55
7754;BME280;3921;42.266;23.122;2023-03-03T02:30:22;95375.19;;;6.24;80.29
7754;BME280;3921;42.266;23.122;2023-03-03T02:32:49;95471.41;;;6.84;80.70
7754;BME280;3921;42.266;23.122;2023-03-03T02:35:31;95076.41;;;4.75;79.64
7754;BME280;3921;42.266;23.122;2023-03-03T02:38:03;95068.63;;;4.45;80.02
7754;BME280;3921;42.266;23.122;2023-03-03T02:40:35;95528.50;;;7.42;79.96
7754;BME280;3921;42.266;23.122;2023-03-03T02:43:05;95303.56;;;6.11;78.74
7754;BME280;3921;42.266;23.122;2023-03-03T02:45:43;95357.78;;;6.30;79.37
7754;BME280;3921;42.266;23.122;2023-03-03T02:48:10;95291.84;;;5.99;79.23
7754;BME280;3921;42.266;23.122;2023-03-03T02:50:40;95520.91;;;7.33;79.48
7754;BME280;3921;42.266;23.122;2023-03-03T02:53:07;95571.09;;;7.60;79.10
7754;BME280;3921;42.266;23.122;2023-03-03T02:55:34;95587.88;;;7.73;77.93
7754;BME280;3921;42.266;23.122;2023-03-03T02:58:01;95169.81;;;5.22;77.20
7754;BME280;3921;42.266;23.122;2023-03-03T03:00:29;95599.44;;;7.62;78.14
7754;BME280;3921;42.266;23.122;2023-03-03T03:02:56;95540.81;;;7.22;78.07
7754;BME280;3921;42.266;23.122;2023-03-03T03:05:25;95597.81;;;7.63;78.05
7754;BME280;3921;42.266;23.122;2023-03-03T03:07:53;95522.63;;;7.37;77.40
7754;BME280;3921;42.266;23.122;2023-03-03T03:10:20;95601.16;;;7.66;78.14
7754;BME280;3921;42.266;23.122;2023-03-03T03:12:47;95481.63;;;7.15;77.55
7754;BME280;3921;42.266;23.122;2023-03-03T03:15:14;95505.84;;;7.21;77.89
7754;BME280;3921;42.266;23.122;2023-03-03T03:17:43;95493.28;;;7.14;77.49
7754;BME280;3921;42.266;23.122;2023-03-03T03:20:10;95583.69;;;7.71;77.81
7754;BME280;3921;42.266;23.122;2023-03-03T03:22:38;95410.53;;;6.69;77.75
7754;BME280;3921;42.266;23.122;2023-03-03T03:25:05;95585.41;;;7.77;78.06
7754;BME280;3921;42.266;23.122;2023-03-03T03:27:33;95234.31;;;5.84;76.71
7754;BME280;3921;42.266;23.122;2023-03-03T03:30:00;95547.78;;;7.58;77.70
7754;BME280;3921;42.266;23.122;2023-03-03T03:32:27;95052.38;;;4.77;77.13
7754;BME280;3921;42.266;23.122;2023-03-03T03:34:55;95255.91;;;5.82;77.93
7754;BME280;3921;42.266;23.122;2023-03-03T03:37:22;95297.66;;;6.00;78.55
7754;BME280;3921;42.266;23.122;2023-03-03T03:39:49;95595.31;;;7.66;79.36
7754;BME280;3921;42.266;23.122;2023-03-03T03:42:16;95250.03;;;5.75;79.30
7754;BME280;3921;42.266;23.122;2023-03-03T03:44:44;95336.16;;;6.26;79.00
7754;BME280;3921;42.266;23.122;2023-03-03T03:47:11;95411.34;;;6.69;79.06
7754;BME280;3921;42.266;23.122;2023-03-03T03:49:38;95562.03;;;7.73;79.32
7754;BME280;3921;42.266;23.122;2023-03-03T03:52:06;95454.94;;;7.06;79.75
7754;BME280;3921;42.266;23.122;2023-03-03T03:54:33;95555.31;;;7.66;79.84
7754;BME280;3921;42.266;23.122;2023-03-03T03:57:01;95243.41;;;5.77;79.86
7754;BME280;3921;42.266;23.122;2023-03-03T03:59:28;95403.03;;;6.70;79.73
7754;BME280;3921;42.266;23.122;2023-03-03T04:01:55;95255.09;;;5.81;80.60
7754;BME280;3921;42.266;23.122;2023-03-03T04:04:22;95133.16;;;5.10;80.58
7754;BME280;3921;42.266;23.122;2023-03-03T04:06:49;95419.84;;;6.89;80.85
7754;BME280;3921;42.266;23.122;2023-03-03T04:09:18;95554.56;;;7.79;80.04
7754;BME280;3921;42.266;23.122;2023-03-03T04:11:45;95570.34;;;7.73;80.36
7754;BME280;3921;42.266;23.122;2023-03-03T04:14:12;95556.97;;;7.67;80.99
7754;BME280;3921;42.266;23.122;2023-03-03T04:16:39;95408.91;;;6.74;80.19
7754;BME280;3921;42.266;23.122;2023-03-03T04:19:06;95564.53;;;7.71;80.91
7754;BME280;3921;42.266;23.122;2023-03-03T04:21:33;95419.75;;;6.80;81.77
7754;BME280;3921;42.266;23.122;2023-03-03T04:24:00;95463.22;;;7.01;82.10
7754;BME280;3921;42.266;23.122;2023-03-03T04:26:28;95471.63;;;7.13;81.84
7754;BME280;3921;42.266;23.122;2023-03-03T04:28:56;95180.69;;;5.31;82.61
7754;BME280;3921;42.266;23.122;2023-03-03T04:31:24;95162.25;;;5.14;82.69
7754;BME280;3921;42.266;23.122;2023-03-03T04:33:51;95300.19;;;6.03;82.83
7754;BME280;3921;42.266;23.122;2023-03-03T04:36:18;95247.25;;;5.43;83.36
7754;BME280;3921;42.266;23.122;2023-03-03T04:38:45;95308.47;;;6.00;83.91
7754;BME280;3921;42.266;23.122;2023-03-03T04:41:13;95575.16;;;7.44;84.48
7754;BME280;3921;42.266;23.122;2023-03-03T04:43:42;95401.28;;;6.55;84.06
7754;BME280;3921;42.266;23.122;2023-03-03T04:46:09;95539.25;;;7.32;84.45
7754;BME280;3921;42.266;23.122;2023-03-03T04:48:36;95401.22;;;6.49;84.75
7754;BME280;3921;42.266;23.122;2023-03-03T04:51:04;95368.59;;;6.29;84.69
7754;BME280;3921;42.266;23.122;2023-03-03T04:53:31;95495.75;;;7.10;84.45
7754;BME280;3921;42.266;23.122;2023-03-03T04:55:58;95571.09;;;7.60;83.77
7754;BME280;3921;42.266;23.122;2023-03-03T04:58:25;95091.25;;;4.68;83.42
7754;BME280;3921;42.266;23.122;2023-03-03T05:00:55;95481.59;;;7.09;84.00
7754;BME280;3921;42.266;23.122;2023-03-03T05:03:23;95077.09;;;4.61;83.48
7754;BME280;3921;42.266;23.122;2023-03-03T05:05:51;95243.19;;;5.54;84.42
7754;BME280;3921;42.266;23.122;2023-03-03T05:08:18;95072.84;;;4.52;84.94
7754;BME280;3921;42.266;23.122;2023-03-03T05:10:45;95417.91;;;6.55;85.49
7754;BME280;3921;42.266;23.122;2023-03-03T05:13:12;95501.53;;;7.00;84.91
7754;BME280;3921;42.266;23.122;2023-03-03T05:15:41;95399.41;;;6.36;86.02
7754;BME280;3921;42.266;23.122;2023-03-03T05:18:10;95277.31;;;5.60;85.42
7754;BME280;3921;42.266;23.122;2023-03-03T05:20:39;95369.31;;;6.18;86.18
7754;BME280;3921;42.266;23.122;2023-03-03T05:23:06;95100.81;;;4.31;86.24
7754;BME280;3921;42.266;23.122;2023-03-03T05:25:35;95428.63;;;6.43;85.82
7754;BME280;3921;42.266;23.122;2023-03-03T05:28:02;95590.16;;;7.41;86.05
7754;BME280;3921;42.266;23.122;2023-03-03T05:30:29;95243.03;;;5.36;85.71
7754;BME280;3921;42.266;23.122;2023-03-03T05:32:56;95407.75;;;6.36;85.68
7754;BME280;3921;42.266;23.122;2023-03-03T05:35:26;95586.03;;;7.48;85.23
7754;BME280;3921;42.266;23.122;2023-03-03T05:37:53;95290.53;;;5.51;85.58
7754;BME280;3921;42.266;23.122;2023-03-03T05:40:23;95610.97;;;7.42;84.83
7754;BME280;3921;42.266;23.122;2023-03-03T05:42:50;95162.00;;;4.88;85.02
7754;BME280;3921;42.266;23.122;2023-03-03T05:45:18;95613.47;;;7.42;85.47
7754;BME280;3921;42.266;23.122;2023-03-03T05:47:46;95590.16;;;7.43;85.98
7754;BME280;3921;42.266;23.122;2023-03-03T05:50:13;95384.28;;;6.19;85.15
7754;BME280;3921;42.266;23.122;2023-03-03T05:52:42;95178.78;;;5.06;84.30
7754;BME280;3921;42.266;23.122;2023-03-03T05:55:50;95100.81;;;4.31;85.01
7754;BME280;3921;42.266;23.122;2023-03-03T05:58:17;95618.50;;;7.45;85.17
7754;BME280;3921;42.266;23.122;2023-03-03T06:00:44;95590.94;;;7.36;84.99
7754;BME280;3921;42.266;23.122;2023-03-03T06:03:11;95592.72;;;7.52;85.15
7754;BME280;3921;42.266;23.122;2023-03-03T06:05:38;95292.31;;;5.65;84.22
7754;BME280;3921;42.266;23.122;2023-03-03T06:08:07;95287.22;;;5.55;83.42
7754;BME280;3921;42.266;23.122;2023-03-03T06:10:34;95614.38;;;7.50;84.00
7754;BME280;3921;42.266;23.122;2023-03-03T06:13:01;95202.94;;;5.12;83.88
7754;BME280;3921;42.266;23.122;2023-03-03T06:15:29;95642.75;;;7.52;82.94
7754;BME280;3921;42.266;23.122;2023-03-03T06:17:56;95434.50;;;6.48;82.24
7754;BME280;3921;42.266;23.122;2023-03-03T06:20:24;95603.53;;;7.51;82.52
7754;BME280;3921;42.266;23.122;2023-03-03T06:22:51;95625.19;;;7.49;82.50
7754;BME280;3921;42.266;23.122;2023-03-03T06:25:20;95616.91;;;7.56;82.87
7754;BME280;3921;42.266;23.122;2023-03-03T06:27:47;95561.59;;;7.15;82.83
7754;BME280;3921;42.266;23.122;2023-03-03T06:30:14;95417.75;;;6.39;82.30
7754;BME280;3921;42.266;23.122;2023-03-03T06:32:43;95585.97;;;7.42;82.23
7754;BME280;3921;42.266;23.122;2023-03-03T06:35:10;95548.22;;;7.07;82.65
7754;BME280;3921;42.266;23.122;2023-03-03T06:37:38;95461.06;;;6.46;83.46
7754;BME280;3921;42.266;23.122;2023-03-03T06:40:06;95636.03;;;7.51;83.83
7754;BME280;3921;42.266;23.122;2023-03-03T06:42:35;95358.38;;;6.03;83.41
7754;BME280;3921;42.266;23.122;2023-03-03T06:45:02;95133.63;;;4.71;82.93
7754;BME280;3921;42.266;23.122;2023-03-03T06:47:29;95543.22;;;7.10;83.08
7754;BME280;3921;42.266;23.122;2023-03-03T06:49:57;95656.19;;;7.66;82.95
7754;BME280;3921;42.266;23.122;2023-03-03T06:52:25;95630.38;;;7.69;83.24
7754;BME280;3921;42.266;23.122;2023-03-03T06:54:56;95266.34;;;5.44;82.84
7754;BME280;3921;42.266;23.122;2023-03-03T06:57:26;95311.59;;;5.79;82.76
7754;BME280;3921;42.266;23.122;2023-03-03T06:59:58;95442.03;;;6.54;82.54
7754;BME280;3921;42.266;23.122;2023-03-03T07:02:26;95621.19;;;7.69;83.34
7754;BME280;3921;42.266;23.122;2023-03-03T07:04:55;95617.03;;;7.71;83.68
7754;BME280;3921;42.266;23.122;2023-03-03T07:07:24;95592.59;;;7.35;83.21
7754;BME280;3921;42.266;23.122;2023-03-03T07:09:56;95636.13;;;7.62;83.56
7754;BME280;3921;42.266;23.122;2023-03-03T07:12:25;95452.13;;;6.70;83.08
7754;BME280;3921;42.266;23.122;2023-03-03T07:14:59;95648.75;;;7.76;82.39
7754;BME280;3921;42.266;23.122;2023-03-03T07:17:29;95348.31;;;5.94;81.91
7754;BME280;3921;42.266;23.122;2023-03-03T07:19:56;95634.53;;;7.73;82.48
7754;BME280;3921;42.266;23.122;2023-03-03T07:22:26;95472.84;;;6.59;82.97
7754;BME280;3921;42.266;23.122;2023-03-03T07:24:58;95124.44;;;4.67;82.70
7754;BME280;3921;42.266;23.122;2023-03-03T07:27:27;95421.09;;;6.42;83.13
7754;BME280;3921;42.266;23.122;2023-03-03T07:30:08;95248.84;;;5.35;82.53
7754;BME280;3921;42.266;23.122;2023-03-03T07:32:44;95491.50;;;6.97;82.90
7754;BME280;3921;42.266;23.122;2023-03-03T07:35:34;95130.31;;;4.73;82.99
7754;BME280;3921;42.266;23.122;2023-03-03T07:38:13;95075.25;;;4.46;82.80
7754;BME280;3921;42.266;23.122;2023-03-03T07:40:47;95191.38;;;5.20;82.71
7754;BME280;3921;42.266;23.122;2023-03-03T07:43:29;95287.44;;;5.75;82.35
7754;BME280;3921;42.266;23.122;2023-03-03T07:46:02;95418.06;;;6.73;81.93
7754;BME280;3921;42.266;23.122;2023-03-03T07:48:34;95612.16;;;7.90;81.86
7754;BME280;3921;42.266;23.122;2023-03-03T07:51:12;95614.66;;;7.88;82.05
7754;BME280;3921;42.266;23.122;2023-03-03T07:53:40;95615.53;;;7.92;81.74
7754;BME280;3921;42.266;23.122;2023-03-03T07:56:16;95515.88;;;7.25;81.98
7754;BME280;3921;42.266;23.122;2023-03-03T07:58:47;95132.19;;;4.94;81.60
7754;BME280;3921;42.266;23.122;2023-03-03T08:01:39;95368.69;;;6.37;81.22
7754;BME280;3921;42.266;23.122;2023-03-03T08:04:19;95607.88;;;7.73;81.90
7754;BME280;3921;42.266;23.122;2023-03-03T08:06:52;95412.09;;;6.56;82.07
7754;BME280;3921;42.266;23.122;2023-03-03T08:12:22;95418.88;;;6.74;83.06
7754;BME280;3921;42.266;23.122;2023-03-03T08:14:51;95592.06;;;7.76;83.41
7754;BME280;3921;42.266;23.122;2023-03-03T08:17:22;95013.72;;;4.25;83.27
7754;BME280;3921;42.266;23.122;2023-03-03T08:19:52;95123.03;;;4.90;83.65
7754;BME280;3921;42.266;23.122;2023-03-03T08:22:27;95603.00;;;7.92;83.85
7754;BME280;3921;42.266;23.122;2023-03-03T08:24:56;95343.69;;;6.35;83.15
7754;BME280;3921;42.266;23.122;2023-03-03T08:27:23;95415.66;;;6.87;82.86
7754;BME280;3921;42.266;23.122;2023-03-03T08:29:50;95585.41;;;7.75;82.41
7754;BME280;3921;42.266;23.122;2023-03-03T08:32:17;95621.34;;;7.92;82.60
7754;BME280;3921;42.266;23.122;2023-03-03T08:34:49;95183.13;;;5.25;83.01
7754;BME280;3921;42.266;23.122;2023-03-03T08:37:16;95616.28;;;7.85;83.36
7754;BME280;3921;42.266;23.122;2023-03-03T08:39:48;95521.78;;;7.36;84.09
7754;BME280;3921;42.266;23.122;2023-03-03T08:42:18;95154.06;;;5.24;83.92
7754;BME280;3921;42.266;23.122;2023-03-03T08:44:46;95371.41;;;6.66;83.72
7754;BME280;3921;42.266;23.122;2023-03-03T08:47:14;95601.38;;;8.00;83.17
7754;BME280;3921;42.266;23.122;2023-03-03T08:49:41;95603.09;;;8.06;83.08
7754;BME280;3921;42.266;23.122;2023-03-03T08:52:12;95583.00;;;7.93;83.92
7754;BME280;3921;42.266;23.122;2023-03-03T08:54:39;95595.53;;;8.03;84.17
7754;BME280;3921;42.266;23.122;2023-03-03T08:57:06;95607.25;;;8.08;83.82
7754;BME280;3921;42.266;23.122;2023-03-03T08:59:33;95223.56;;;5.88;83.10
7754;BME280;3921;42.266;23.122;2023-03-03T09:02:03;95334.53;;;6.33;82.39
7754;BME280;3921;42.266;23.122;2023-03-03T09:04:30;95623.97;;;8.14;82.54
7754;BME280;3921;42.266;23.122;2023-03-03T09:06:58;95597.25;;;8.08;82.78
7754;BME280;3921;42.266;23.122;2023-03-03T09:09:28;95301.97;;;6.18;83.52
7754;BME280;3921;42.266;23.122;2023-03-03T09:12:02;95130.03;;;5.28;82.39
7754;BME280;3921;42.266;23.122;2023-03-03T09:14:35;95222.63;;;5.74;82.59
7754;BME280;3921;42.266;23.122;2023-03-03T09:17:20;95546.09;;;7.57;83.30
7754;BME280;3921;42.266;23.122;2023-03-03T09:19:49;95516.09;;;7.59;82.98
7754;BME280;3921;42.266;23.122;2023-03-03T09:22:18;95572.94;;;7.83;82.93
7754;BME280;3921;42.266;23.122;2023-03-03T09:24:50;95449.97;;;7.12;83.31
7754;BME280;3921;42.266;23.122;2023-03-03T09:27:26;95455.03;;;7.18;83.24
7754;BME280;3921;42.266;23.122;2023-03-03T09:29:54;95200.09;;;5.65;82.61
7754;BME280;3921;42.266;23.122;2023-03-03T09:32:32;95615.66;;;8.16;82.15
7754;BME280;3921;42.266;23.122;2023-03-03T09:35:01;95601.47;;;8.18;82.27
7754;BME280;3921;42.266;23.122;2023-03-03T09:37:49;95548.72;;;7.79;82.56
7754;BME280;3921;42.266;23.122;2023-03-03T09:40:38;95506.03;;;7.48;83.16
7754;BME280;3921;42.266;23.122;2023-03-03T09:43:12;95328.66;;;6.28;82.73
7754;BME280;3921;42.266;23.122;2023-03-03T09:45:58;95524.50;;;7.68;82.87
7754;BME280;3921;42.266;23.122;2023-03-03T09:48:49;95608.16;;;8.19;82.84
7754;BME280;3921;42.266;23.122;2023-03-03T09:54:30;95604.16;;;8.44;81.44
7754;BME280;3921;42.266;23.122;2023-03-03T09:57:08;95104.97;;;5.14;84.05
7754;BME280;3921;42.266;23.122;2023-03-03T09:59:48;95608.25;;;8.33;84.83
7754;BME280;3921;42.266;23.122;2023-03-03T10:02:34;95285.47;;;6.32;85.34
7754;BME280;3921;42.266;23.122;2023-03-03T10:05:11;95336.19;;;6.31;86.78
7754;BME280;3921;42.266;23.122;2023-03-03T10:07:49;95296.22;;;6.28;87.47
7754;BME280;3921;42.266;23.122;2023-03-03T10:10:47;95573.03;;;8.01;87.41
7754;BME280;3921;42.266;23.122;2023-03-03T10:13:29;95629.84;;;8.19;87.35
7754;BME280;3921;42.266;23.122;2023-03-03T10:16:17;95605.69;;;8.21;86.94
7754;BME280;3921;42.266;23.122;2023-03-03T10:18:52;95434.94;;;7.06;87.36
7754;BME280;3921;42.266;23.122;2023-03-03T10:21:24;95568.81;;;7.94;87.20
7754;BME280;3921;42.266;23.122;2023-03-03T10:24:00;95496.06;;;7.54;86.42
7754;BME280;3921;42.266;23.122;2023-03-03T10:26:44;95338.59;;;6.25;86.56
7754;BME280;3921;42.266;23.122;2023-03-03T10:29:29;95560.25;;;7.55;88.50
7754;BME280;3921;42.266;23.122;2023-03-03T10:32:27;95239.91;;;5.58;86.79
7754;BME280;3921;42.266;23.122;2023-03-03T10:35:17;94998.84;;;4.33;87.09
7754;BME280;3921;42.266;23.122;2023-03-03T10:37:56;95398.81;;;6.61;88.12
7754;BME280;3921;42.266;23.122;2023-03-03T10:40:32;95291.91;;;6.07;87.58
7754;BME280;3921;42.266;23.122;2023-03-03T10:43:18;95398.94;;;6.80;87.64
7754;BME280;3921;42.266;23.122;2023-03-03T10:46:16;95552.09;;;7.85;87.57
7754;BME280;3921;42.266;23.122;2023-03-03T10:49:05;95054.06;;;4.80;86.64
7754;BME280;3921;42.266;23.122;2023-03-03T10:51:46;95398.19;;;6.93;88.09
7754;BME280;3921;42.266;23.122;2023-03-03T10:54:29;95266.25;;;6.22;89.34
7754;BME280;3921;42.266;23.122;2023-03-03T10:57:07;95154.94;;;5.32;89.71
7754;BME280;3921;42.266;23.122;2023-03-03T10:59:49;95428.44;;;7.33;88.22
7754;BME280;3921;42.266;23.122;2023-03-03T11:02:23;95252.91;;;6.15;90.42
7754;BME280;3921;42.266;23.122;2023-03-03T11:05:16;95568.91;;;8.14;90.97
7754;BME280;3921;42.266;23.122;2023-03-03T11:07:51;95080.91;;;5.13;90.40
7754;BME280;3921;42.266;23.122;2023-03-03T11:10:32;95408.34;;;7.13;91.16
7754;BME280;3921;42.266;23.122;2023-03-03T11:13:07;95047.59;;;4.99;91.36
7754;BME280;3921;42.266;23.122;2023-03-03T11:15:49;95158.59;;;5.73;90.60
7754;BME280;3921;42.266;23.122;2023-03-03T11:18:34;95288.16;;;6.64;90.46
7754;BME280;3921;42.266;23.122;2023-03-03T11:21:12;95456.13;;;7.63;90.87
7754;BME280;3921;42.266;23.122;2023-03-03T11:24:01;95523.00;;;8.06;91.80
7754;BME280;3921;42.266;23.122;2023-03-03T11:32:36;95088.56;;;5.36;90.84
7754;BME280;3921;42.266;23.122;2023-03-03T11:35:18;95404.31;;;7.38;90.85
7754;BME280;3921;42.266;23.122;2023-03-03T11:38:03;95066.94;;;5.32;89.44
7754;BME280;3921;42.266;23.122;2023-03-03T11:40:44;95552.34;;;8.36;89.68
7754;BME280;3921;42.266;23.122;2023-03-03T11:43:17;95392.63;;;7.37;89.29
7754;BME280;3921;42.266;23.122;2023-03-03T11:45:49;95148.84;;;5.97;88.85
7754;BME280;3921;42.266;23.122;2023-03-03T11:48:23;95546.56;;;8.46;89.77
7754;BME280;3921;42.266;23.122;2023-03-03T11:51:04;95051.19;;;5.38;89.37
7754;BME280;3921;42.266;23.122;2023-03-03T11:53:42;95218.97;;;6.42;87.78
7754;BME280;3921;42.266;23.122;2023-03-03T11:56:21;95374.38;;;7.56;87.63
7754;BME280;3921;42.266;23.122;2023-03-03T11:58:57;95380.22;;;7.54;88.59
7754;BME280;3921;42.266;23.122;2023-03-03T12:01:31;95367.72;;;7.52;88.72
7754;BME280;3921;42.266;23.122;2023-03-03T12:04:02;95544.88;;;8.48;89.45
7754;BME280;3921;42.266;23.122;2023-03-03T12:06:39;95077.06;;;5.55;88.41
7754;BME280;3921;42.266;23.122;2023-03-03T12:09:25;95367.69;;;7.46;88.68
7754;BME280;3921;42.266;23.122;2023-03-03T12:12:00;94991.34;;;5.22;88.55
7754;BME280;3921;42.266;23.122;2023-03-03T12:14:52;95018.69;;;5.21;88.44
7754;BME280;3921;42.266;23.122;2023-03-03T12:17:37;95063.09;;;5.74;88.92
7754;BME280;3921;42.266;23.122;2023-03-03T12:20:16;95059.69;;;5.66;88.71
7754;BME280;3921;42.266;23.122;2023-03-03T12:23:07;95050.66;;;5.80;88.75
7754;BME280;3921;42.266;23.122;2023-03-03T12:25:42;95044.75;;;5.67;88.49
7754;BME280;3921;42.266;23.122;2023-03-03T12:28:16;94993.84;;;5.27;88.29
7754;BME280;3921;42.266;23.122;2023-03-03T12:31:12;95433.84;;;8.32;87.91
7754;BME280;3921;42.266;23.122;2023-03-03T12:33:53;95283.47;;;7.25;87.96
7754;BME280;3921;42.266;23.122;2023-03-03T12:42:00;94980.69;;;5.48;86.27
7754;BME280;3921;42.266;23.122;2023-03-03T12:44:54;95014.81;;;5.61;87.01
7754;BME280;3921;42.266;23.122;2023-03-03T12:53:10;94997.44;;;5.76;85.72
7754;BME280;3921;42.266;23.122;2023-03-03T13:16:18;95516.63;;;9.02;85.52
7754;BME280;3921;42.266;23.122;2023-03-03T13:18:54;95199.31;;;7.13;84.22
7754;BME280;3921;42.266;23.122;2023-03-03T21:44:41;95166.63;;;5.35;87.03
7754;BME280;3921;42.266;23.122;2023-03-03T21:47:29;95164.97;;;5.34;88.17
7754;BME280;3921;42.266;23.122;2023-03-03T22:00:49;95461.78;;;7.36;88.97
7754;BME280;3921;42.266;23.122;2023-03-03T22:03:35;95206.63;;;5.52;89.17
7754;BME280;3921;42.266;23.122;2023-03-03T22:06:19;95198.28;;;5.48;88.96
7754;BME280;3921;42.266;23.122;2023-03-03T22:08:49;95209.19;;;5.58;88.64
7754;BME280;3921;42.266;23.122;2023-03-03T22:11:19;95674.28;;;8.50;89.82
7754;BME280;3921;42.266;23.122;2023-03-03T22:13:50;95152.19;;;5.03;89.23
7754;BME280;3921;42.266;23.122;2023-03-03T22:19:21;95152.34;;;5.19;88.94
7754;BME280;3921;42.266;23.122;2023-03-03T22:21:58;95164.84;;;5.23;87.57
7754;BME280;3921;42.266;23.122;2023-03-03T22:24:44;95218.28;;;5.53;87.32
